createdAt,value
2022-12-14T00:00:33.661Z,67.60
2022-12-14T00:01:36.615Z,66.94
2022-12-14T00:02:36.745Z,68.83
2022-12-14T00:03:33.588Z,68.93
2022-12-14T00:04:33.552Z,68.98
2022-12-14T00:05:33.524Z,68.82
2022-12-14T00:06:33.527Z,68.64
2022-12-14T00:07:33.556Z,68.69
2022-12-14T00:08:38.286Z,70.02
2022-12-14T00:09:34.474Z,70.25
2022-12-14T00:10:33.465Z,71.03
2022-12-14T00:11:33.455Z,72.28
2022-12-14T00:12:33.437Z,73.82
2022-12-14T00:13:33.455Z,75.23
2022-12-14T00:14:33.415Z,78.54
2022-12-14T00:15:33.434Z,79.79
2022-12-14T00:16:33.388Z,81.70
2022-12-14T00:17:33.368Z,81.02
2022-12-14T00:18:33.358Z,81.18
2022-12-14T00:19:33.375Z,82.53
2022-12-14T00:20:33.331Z,82.37
2022-12-14T00:21:36.324Z,82.11
2022-12-14T00:22:36.323Z,83.33
2022-12-14T00:23:38.672Z,84.51
2022-12-14T00:24:34.315Z,87.26
2022-12-14T00:25:33.264Z,88.28
2022-12-14T00:26:33.268Z,86.50
2022-12-14T00:27:33.236Z,87.06
2022-12-14T00:28:33.247Z,87.00
2022-12-14T00:29:33.249Z,86.48
2022-12-14T00:30:33.207Z,84.91
2022-12-14T00:31:33.238Z,84.36
2022-12-14T00:32:33.187Z,83.03
2022-12-14T00:33:33.157Z,82.76
2022-12-14T00:34:33.186Z,83.00
2022-12-14T00:35:33.141Z,83.64
2022-12-14T00:36:33.159Z,83.92
2022-12-14T00:37:33.108Z,87.14
2022-12-14T00:38:33.102Z,86.10
2022-12-14T00:39:33.139Z,87.19
2022-12-14T00:40:33.079Z,87.08
2022-12-14T00:41:36.060Z,86.78
2022-12-14T00:42:36.067Z,86.72
2022-12-14T00:43:33.027Z,86.27
2022-12-14T00:44:33.019Z,87.53
2022-12-14T00:45:33.057Z,87.90
2022-12-14T00:46:33.013Z,87.16
2022-12-14T00:47:37.511Z,87.76
2022-12-14T00:48:33.966Z,88.65
2022-12-14T00:49:32.948Z,89.92
2022-12-14T00:50:32.946Z,90.42
2022-12-14T00:51:32.981Z,89.99
2022-12-14T00:52:32.923Z,91.66
2022-12-14T00:53:32.897Z,91.24
2022-12-14T00:54:32.918Z,91.11
2022-12-14T00:55:32.877Z,90.28
2022-12-14T00:56:32.876Z,89.35
2022-12-14T00:57:32.879Z,89.04
2022-12-14T00:58:32.871Z,90.06
2022-12-14T00:59:32.821Z,90.50
2022-12-14T01:00:32.810Z,92.00
2022-12-14T01:01:35.918Z,92.07
2022-12-14T01:02:35.915Z,92.12
2022-12-14T01:03:33.441Z,92.60
2022-12-14T01:04:32.768Z,93.27
2022-12-14T01:05:32.747Z,94.37
2022-12-14T01:06:32.738Z,95.51
2022-12-14T01:07:32.780Z,94.99
2022-12-14T01:08:32.708Z,95.58
2022-12-14T01:09:32.697Z,96.70
2022-12-14T01:10:32.695Z,96.50
2022-12-14T01:11:32.682Z,96.79
2022-12-14T01:12:32.664Z,96.17
2022-12-14T01:13:32.670Z,97.61
2022-12-14T01:14:32.670Z,98.93
2022-12-14T01:15:32.641Z,102.09
2022-12-14T01:16:32.656Z,99.89
2022-12-14T01:17:32.592Z,100.02
2022-12-14T01:18:32.645Z,101.03
2022-12-14T01:19:32.565Z,101.40
2022-12-14T01:20:32.582Z,101.20
2022-12-14T01:21:35.541Z,99.18
2022-12-14T01:22:35.539Z,99.15
2022-12-14T01:23:32.509Z,98.26
2022-12-14T01:24:32.566Z,98.35
2022-12-14T01:25:32.489Z,100.48
2022-12-14T01:26:32.480Z,101.56
2022-12-14T01:27:32.458Z,101.66
2022-12-14T01:28:32.449Z,101.38
2022-12-14T01:29:32.431Z,102.59
2022-12-14T01:30:32.451Z,103.55
2022-12-14T01:31:32.467Z,104.04
2022-12-14T01:32:32.429Z,105.90
2022-12-14T01:33:32.380Z,108.01
2022-12-14T01:34:32.370Z,108.92
2022-12-14T01:35:32.359Z,109.04
2022-12-14T01:36:32.352Z,111.02
2022-12-14T01:37:32.380Z,112.73
2022-12-14T01:38:32.320Z,112.97
2022-12-14T01:39:32.300Z,112.44
2022-12-14T01:40:32.298Z,112.47
2022-12-14T01:41:35.300Z,112.95
2022-12-14T01:42:35.320Z,114.83
2022-12-14T01:43:32.260Z,115.58
2022-12-14T01:44:32.251Z,117.17
2022-12-14T01:45:32.231Z,115.94
2022-12-14T01:46:32.248Z,116.26
2022-12-14T01:47:32.230Z,117.79
2022-12-14T01:48:32.212Z,118.38
2022-12-14T01:49:32.201Z,118.91
2022-12-14T01:50:32.163Z,117.27
2022-12-14T01:51:32.161Z,118.74
2022-12-14T01:52:32.156Z,118.69
2022-12-14T01:53:32.130Z,118.85
2022-12-14T01:54:32.162Z,117.63
2022-12-14T01:55:32.099Z,117.13
2022-12-14T01:56:32.093Z,118.40
2022-12-14T01:57:32.071Z,118.41
2022-12-14T01:58:32.063Z,118.79
2022-12-14T01:59:32.051Z,120.26
2022-12-14T02:00:32.062Z,120.73
2022-12-14T02:01:35.174Z,121.43
2022-12-14T02:02:35.108Z,123.27
2022-12-14T02:03:32.608Z,124.53
2022-12-14T02:04:31.992Z,125.79
2022-12-14T02:05:31.974Z,127.13
2022-12-14T02:06:32.002Z,127.05
2022-12-14T02:07:31.944Z,127.36
2022-12-14T02:08:31.964Z,128.20
2022-12-14T02:09:31.922Z,129.11
2022-12-14T02:10:31.910Z,129.35
2022-12-14T02:11:31.892Z,130.28
2022-12-14T02:12:31.881Z,131.22
2022-12-14T02:13:31.901Z,131.59
2022-12-14T02:14:31.863Z,133.23
2022-12-14T02:15:31.841Z,134.40
2022-12-14T02:16:31.879Z,132.95
2022-12-14T02:17:31.815Z,133.39
2022-12-14T02:18:31.812Z,134.31
2022-12-14T02:19:31.825Z,133.63
2022-12-14T02:20:31.774Z,132.52
2022-12-14T02:21:34.763Z,133.13
2022-12-14T02:22:34.768Z,133.10
2022-12-14T02:23:31.799Z,131.36
2022-12-14T02:24:31.732Z,129.27
2022-12-14T02:25:31.712Z,125.21
2022-12-14T02:26:31.704Z,123.48
2022-12-14T02:27:31.693Z,123.56
2022-12-14T02:28:31.685Z,125.69
2022-12-14T02:29:31.724Z,126.32
2022-12-14T02:30:31.650Z,124.57
2022-12-14T02:31:31.678Z,123.34
2022-12-14T02:32:31.632Z,122.49
2022-12-14T02:33:31.612Z,120.00
2022-12-14T02:34:31.595Z,116.65
2022-12-14T02:35:31.614Z,115.54
2022-12-14T02:36:31.564Z,116.44
2022-12-14T02:37:31.563Z,117.10
2022-12-14T02:38:31.545Z,118.08
2022-12-14T02:39:31.534Z,119.72
2022-12-14T02:40:31.546Z,120.26
2022-12-14T02:41:34.504Z,121.50
2022-12-14T02:42:34.505Z,124.44
2022-12-14T02:43:31.484Z,127.09
2022-12-14T02:44:31.506Z,127.83
2022-12-14T02:45:31.456Z,130.56
2022-12-14T02:46:31.469Z,133.50
2022-12-14T02:47:31.442Z,133.50
2022-12-14T02:48:31.425Z,130.37
2022-12-14T02:49:31.436Z,128.85
2022-12-14T02:50:31.416Z,128.45
2022-12-14T02:51:31.387Z,129.30
2022-12-14T02:52:31.365Z,129.17
2022-12-14T02:53:31.538Z,131.10
2022-12-14T02:54:31.342Z,132.20
2022-12-14T02:55:31.356Z,134.55
2022-12-14T02:56:31.315Z,133.89
2022-12-14T02:57:31.316Z,133.87
2022-12-14T02:58:31.297Z,134.24
2022-12-14T02:59:31.308Z,134.56
2022-12-14T03:00:31.304Z,135.62
2022-12-14T03:01:34.435Z,135.62
2022-12-14T03:02:34.328Z,137.84
2022-12-14T03:03:31.392Z,139.15
2022-12-14T03:04:31.238Z,139.84
2022-12-14T03:05:31.209Z,140.22
2022-12-14T03:06:31.355Z,142.07
2022-12-14T03:07:31.176Z,142.88
2022-12-14T03:08:31.155Z,142.53
2022-12-14T03:09:31.153Z,141.75
2022-12-14T03:10:31.134Z,142.63
2022-12-14T03:11:31.125Z,141.64
2022-12-14T03:12:31.136Z,142.76
2022-12-14T03:13:31.407Z,142.77
2022-12-14T03:14:31.089Z,143.39
2022-12-14T03:15:31.098Z,143.81
2022-12-14T03:16:31.101Z,144.43
2022-12-14T03:17:31.047Z,144.81
2022-12-14T03:18:31.027Z,146.37
2022-12-14T03:19:31.026Z,146.12
2022-12-14T03:20:31.047Z,147.37
2022-12-14T03:21:33.997Z,146.79
2022-12-14T03:22:33.992Z,149.08
2022-12-14T03:23:31.332Z,149.03
2022-12-14T03:24:30.960Z,147.81
2022-12-14T03:25:30.937Z,146.70
2022-12-14T03:26:30.949Z,146.70
2022-12-14T03:27:30.908Z,146.77
2022-12-14T03:28:30.898Z,147.36
2022-12-14T03:29:30.889Z,149.71
2022-12-14T03:30:58.229Z,150.23
2022-12-14T03:31:31.950Z,152.28
2022-12-14T03:32:30.848Z,153.45
2022-12-14T03:33:31.282Z,154.46
2022-12-14T03:34:30.817Z,155.31
2022-12-14T03:35:30.809Z,156.26
2022-12-14T03:36:30.828Z,159.20
2022-12-14T03:37:30.787Z,158.08
2022-12-14T03:38:30.777Z,158.31
2022-12-14T03:39:30.758Z,158.58
2022-12-14T03:40:30.749Z,159.09
2022-12-14T03:41:33.909Z,159.15
2022-12-14T03:42:33.742Z,161.00
2022-12-14T03:43:31.015Z,161.27
2022-12-14T03:44:30.699Z,162.33
2022-12-14T03:45:30.718Z,158.75
2022-12-14T03:46:30.673Z,156.09
2022-12-14T03:47:30.695Z,153.78
2022-12-14T03:48:30.639Z,151.66
2022-12-14T03:49:30.640Z,149.73
2022-12-14T03:50:30.621Z,148.27
2022-12-14T03:51:30.633Z,145.88
2022-12-14T03:52:30.588Z,146.28
2022-12-14T03:53:30.819Z,145.13
2022-12-14T03:54:30.577Z,142.74
2022-12-14T03:55:30.550Z,141.24
2022-12-14T03:56:30.579Z,140.05
2022-12-14T03:57:30.529Z,137.07
2022-12-14T03:58:30.511Z,137.18
2022-12-14T03:59:30.499Z,134.85
2022-12-14T04:00:30.481Z,133.78
2022-12-14T04:01:33.631Z,133.55
2022-12-14T04:02:36.255Z,133.87
2022-12-14T04:03:31.721Z,134.82
2022-12-14T04:04:30.591Z,138.62
2022-12-14T04:05:30.420Z,139.30
2022-12-14T04:06:30.423Z,139.96
2022-12-14T04:07:30.400Z,141.66
2022-12-14T04:08:30.390Z,144.55
2022-12-14T04:09:30.372Z,146.40
2022-12-14T04:10:30.391Z,148.34
2022-12-14T04:11:30.341Z,149.96
2022-12-14T04:12:30.340Z,151.41
2022-12-14T04:13:30.702Z,152.82
2022-12-14T04:14:30.358Z,155.21
2022-12-14T04:15:30.292Z,156.52
2022-12-14T04:16:30.321Z,157.15
2022-12-14T04:17:30.270Z,157.96
2022-12-14T04:18:30.258Z,159.31
2022-12-14T04:19:30.240Z,160.14
2022-12-14T04:20:30.263Z,161.41
2022-12-14T04:21:33.210Z,162.88
2022-12-14T04:22:33.211Z,164.79
2022-12-14T04:23:30.319Z,166.37
2022-12-14T04:24:30.181Z,167.28
2022-12-14T04:25:30.220Z,167.84
2022-12-14T04:26:30.154Z,169.62
2022-12-14T04:27:30.133Z,170.48
2022-12-14T04:28:30.128Z,171.30
2022-12-14T04:29:30.102Z,172.12
2022-12-14T04:30:30.094Z,172.82
2022-12-14T04:31:30.131Z,173.29
2022-12-14T04:32:30.092Z,173.84
2022-12-14T04:33:30.820Z,174.59
2022-12-14T04:34:30.042Z,175.94
2022-12-14T04:35:30.026Z,176.63
2022-12-14T04:36:30.081Z,176.19
2022-12-14T04:37:30.001Z,176.56
2022-12-14T04:38:29.983Z,175.57
2022-12-14T04:39:29.971Z,175.64
2022-12-14T04:40:29.963Z,175.51
2022-12-14T04:41:32.971Z,176.02
2022-12-14T04:42:32.952Z,176.53
2022-12-14T04:43:30.216Z,176.09
2022-12-14T04:44:29.907Z,177.29
2022-12-14T04:45:29.951Z,177.30
2022-12-14T04:46:29.912Z,176.77
2022-12-14T04:47:29.895Z,175.15
2022-12-14T04:48:29.853Z,174.44
2022-12-14T04:49:29.835Z,174.32
2022-12-14T04:50:29.833Z,175.24
2022-12-14T04:51:29.842Z,175.52
2022-12-14T04:52:29.823Z,176.15
2022-12-14T04:53:30.036Z,176.86
2022-12-14T04:54:29.783Z,178.38
2022-12-14T04:55:29.768Z,178.90
2022-12-14T04:56:29.765Z,178.89
2022-12-14T04:57:29.753Z,179.26
2022-12-14T04:58:29.723Z,179.80
2022-12-14T04:59:29.715Z,180.11
2022-12-14T05:00:29.698Z,179.87
2022-12-14T05:01:32.806Z,180.45
2022-12-14T05:02:32.875Z,181.46
2022-12-14T05:03:30.166Z,181.48
2022-12-14T05:04:29.655Z,181.54
2022-12-14T05:05:29.634Z,182.33
2022-12-14T05:06:29.633Z,183.86
2022-12-14T05:07:29.634Z,186.41
2022-12-14T05:08:29.614Z,185.97
2022-12-14T05:09:29.612Z,186.18
2022-12-14T05:10:29.572Z,186.49
2022-12-14T05:11:52.481Z,186.95
2022-12-14T05:12:30.593Z,187.16
2022-12-14T05:13:29.833Z,187.85
2022-12-14T05:14:29.517Z,188.71
2022-12-14T05:15:29.495Z,194.24
2022-12-14T05:16:29.544Z,194.75
2022-12-14T05:17:29.465Z,193.98
2022-12-14T05:18:29.523Z,192.90
2022-12-14T05:19:29.444Z,192.30
2022-12-14T05:20:29.435Z,192.28
2022-12-14T05:21:32.414Z,191.27
2022-12-14T05:22:32.416Z,191.99
2022-12-14T05:23:30.059Z,191.58
2022-12-14T05:24:29.405Z,191.85
2022-12-14T05:25:29.364Z,191.95
2022-12-14T05:26:29.355Z,192.20
2022-12-14T05:27:29.336Z,192.20
2022-12-14T05:28:29.325Z,192.65
2022-12-14T05:29:29.351Z,192.91
2022-12-14T05:30:29.340Z,193.98
2022-12-14T05:31:29.296Z,194.21
2022-12-14T05:32:29.283Z,195.86
2022-12-14T05:33:29.632Z,195.93
2022-12-14T05:34:29.246Z,196.95
2022-12-14T05:35:29.258Z,197.85
2022-12-14T05:36:29.229Z,199.31
2022-12-14T05:37:29.216Z,199.75
2022-12-14T05:38:29.193Z,199.54
2022-12-14T05:39:29.239Z,199.43
2022-12-14T05:40:29.167Z,200.08
2022-12-14T05:41:32.150Z,199.84
2022-12-14T05:42:32.154Z,201.24
2022-12-14T05:43:29.772Z,201.85
2022-12-14T05:44:29.127Z,201.38
2022-12-14T05:45:29.165Z,201.94
2022-12-14T05:46:29.120Z,201.77
2022-12-14T05:47:29.076Z,201.47
2022-12-14T05:48:29.066Z,201.37
2022-12-14T05:49:29.056Z,202.12
2022-12-14T05:50:29.047Z,202.87
2022-12-14T05:51:29.058Z,203.40
2022-12-14T05:52:29.024Z,203.74
2022-12-14T05:53:29.802Z,204.20
2022-12-14T05:54:28.989Z,204.76
2022-12-14T05:55:28.965Z,206.02
2022-12-14T05:56:28.970Z,206.18
2022-12-14T05:57:28.996Z,206.81
2022-12-14T05:58:28.937Z,207.54
2022-12-14T05:59:28.927Z,207.78
2022-12-14T06:00:28.909Z,208.39
2022-12-14T06:01:31.940Z,208.87
2022-12-14T06:02:31.982Z,209.78
2022-12-14T06:03:29.501Z,209.57
2022-12-14T06:04:28.928Z,210.03
2022-12-14T06:05:28.837Z,210.18
2022-12-14T06:06:28.843Z,211.35
2022-12-14T06:07:28.817Z,214.30
2022-12-14T06:08:28.828Z,215.29
2022-12-14T06:09:28.787Z,215.93
2022-12-14T06:10:28.775Z,218.15
2022-12-14T06:11:28.757Z,219.37
2022-12-14T06:12:28.799Z,221.22
2022-12-14T06:13:29.363Z,223.09
2022-12-14T06:14:28.718Z,224.82
2022-12-14T06:15:33.731Z,225.74
2022-12-14T06:16:29.735Z,227.76
2022-12-14T06:17:28.678Z,228.65
2022-12-14T06:18:28.698Z,227.84
2022-12-14T06:19:28.657Z,226.22
2022-12-14T06:20:28.671Z,224.72
2022-12-14T06:21:31.654Z,224.75
2022-12-14T06:22:31.627Z,225.00
2022-12-14T06:23:29.023Z,223.28
2022-12-14T06:24:28.600Z,220.87
2022-12-14T06:25:28.577Z,218.57
2022-12-14T06:26:28.608Z,217.07
2022-12-14T06:27:28.588Z,216.06
2022-12-14T06:28:28.549Z,215.01
2022-12-14T06:29:28.530Z,213.73
2022-12-14T06:30:28.518Z,212.68
2022-12-14T06:31:28.569Z,212.04
2022-12-14T06:32:28.534Z,211.67
2022-12-14T06:33:28.794Z,215.75
2022-12-14T06:34:28.888Z,214.27
2022-12-14T06:35:28.451Z,212.64
2022-12-14T06:36:28.439Z,213.17
2022-12-14T06:37:28.427Z,212.32
2022-12-14T06:38:28.470Z,211.76
2022-12-14T06:39:28.398Z,212.31
2022-12-14T06:40:28.390Z,210.94
2022-12-14T06:41:31.376Z,211.55
2022-12-14T06:42:31.378Z,212.73
2022-12-14T06:43:28.788Z,214.38
2022-12-14T06:44:28.365Z,213.17
2022-12-14T06:45:28.328Z,213.67
2022-12-14T06:46:28.367Z,212.88
2022-12-14T06:47:28.300Z,212.46
2022-12-14T06:48:28.339Z,214.66
2022-12-14T06:49:28.279Z,213.79
2022-12-14T06:50:28.270Z,213.50
2022-12-14T06:51:28.249Z,213.37
2022-12-14T06:52:28.250Z,212.28
2022-12-14T06:53:28.571Z,212.07
2022-12-14T06:54:28.242Z,212.26
2022-12-14T06:55:28.212Z,212.12
2022-12-14T06:56:28.180Z,212.47
2022-12-14T06:57:28.169Z,213.04
2022-12-14T06:58:32.488Z,212.54
2022-12-14T06:59:28.178Z,212.40
2022-12-14T07:00:28.141Z,213.05
2022-12-14T07:01:31.219Z,212.06
2022-12-14T07:02:31.334Z,213.44
2022-12-14T07:03:28.446Z,212.83
2022-12-14T07:04:28.088Z,212.66
2022-12-14T07:05:28.092Z,213.08
2022-12-14T07:06:28.089Z,212.93
2022-12-14T07:07:28.072Z,212.29
2022-12-14T07:08:28.029Z,212.97
2022-12-14T07:09:28.016Z,213.18
2022-12-14T07:10:28.006Z,213.43
2022-12-14T07:11:28.017Z,213.66
2022-12-14T07:12:27.982Z,213.92
2022-12-14T07:13:28.221Z,214.37
2022-12-14T07:14:27.961Z,217.10
2022-12-14T07:15:27.973Z,217.17
2022-12-14T07:16:27.942Z,218.30
2022-12-14T07:17:27.941Z,219.42
2022-12-14T07:18:27.903Z,222.85
2022-12-14T07:19:27.880Z,221.39
2022-12-14T07:20:27.892Z,220.34
2022-12-14T07:21:30.904Z,218.84
2022-12-14T07:22:30.875Z,218.22
2022-12-14T07:23:28.352Z,217.59
2022-12-14T07:24:27.833Z,214.26
2022-12-14T07:25:27.811Z,212.72
2022-12-14T07:26:27.809Z,210.73
2022-12-14T07:27:27.821Z,210.05
2022-12-14T07:28:27.781Z,209.18
2022-12-14T07:29:34.083Z,208.41
2022-12-14T07:30:28.813Z,208.22
2022-12-14T07:31:27.781Z,208.23
2022-12-14T07:32:27.750Z,208.37
2022-12-14T07:33:28.261Z,208.63
2022-12-14T07:34:27.710Z,209.03
2022-12-14T07:35:27.702Z,210.44
2022-12-14T07:36:27.713Z,210.72
2022-12-14T07:37:27.671Z,210.76
2022-12-14T07:38:27.660Z,211.40
2022-12-14T07:39:27.633Z,211.91
2022-12-14T07:40:27.697Z,212.52
2022-12-14T07:41:30.863Z,212.17
2022-12-14T07:42:30.627Z,214.09
2022-12-14T07:43:27.897Z,214.26
2022-12-14T07:44:27.579Z,214.91
2022-12-14T07:45:27.561Z,216.18
2022-12-14T07:46:27.596Z,217.55
2022-12-14T07:47:27.603Z,215.96
2022-12-14T07:48:27.523Z,215.49
2022-12-14T07:49:27.512Z,214.84
2022-12-14T07:50:27.628Z,215.09
2022-12-14T07:51:27.483Z,215.80
2022-12-14T07:52:28.276Z,215.36
2022-12-14T07:53:27.840Z,214.18
2022-12-14T07:54:27.481Z,214.20
2022-12-14T07:55:27.447Z,212.75
2022-12-14T07:56:27.454Z,213.17
2022-12-14T07:57:27.416Z,212.61
2022-12-14T07:58:27.444Z,210.84
2022-12-14T07:59:27.390Z,210.45
2022-12-14T08:00:27.433Z,209.95
2022-12-14T08:01:30.504Z,209.98
2022-12-14T08:02:30.494Z,210.95
2022-12-14T08:03:27.717Z,210.68
2022-12-14T08:04:27.372Z,210.74
2022-12-14T08:05:27.321Z,211.21
2022-12-14T08:06:27.307Z,209.81
2022-12-14T08:07:27.291Z,206.75
2022-12-14T08:08:27.275Z,204.09
2022-12-14T08:09:27.323Z,202.71
2022-12-14T08:10:27.255Z,200.92
2022-12-14T08:11:27.239Z,200.40
2022-12-14T08:12:27.238Z,199.74
2022-12-14T08:13:27.705Z,199.75
2022-12-14T08:14:27.204Z,199.45
2022-12-14T08:15:27.361Z,200.26
2022-12-14T08:16:27.226Z,201.36
2022-12-14T08:17:27.181Z,200.45
2022-12-14T08:18:27.152Z,199.05
2022-12-14T08:19:27.133Z,198.83
2022-12-14T08:20:27.124Z,198.22
2022-12-14T08:21:30.145Z,197.18
2022-12-14T08:22:30.105Z,196.75
2022-12-14T08:23:27.578Z,195.13
2022-12-14T08:24:27.063Z,194.36
2022-12-14T08:25:27.166Z,193.77
2022-12-14T08:26:34.869Z,193.96
2022-12-14T08:27:28.049Z,193.32
2022-12-14T08:28:27.023Z,193.55
2022-12-14T08:29:27.004Z,192.43
2022-12-14T08:30:26.996Z,192.18
2022-12-14T08:31:27.038Z,195.52
2022-12-14T08:32:32.491Z,192.64
2022-12-14T08:33:28.472Z,189.48
2022-12-14T08:34:26.944Z,186.64
2022-12-14T08:35:26.935Z,187.43
2022-12-14T08:36:26.933Z,183.57
2022-12-14T08:37:26.904Z,181.18
2022-12-14T08:38:26.895Z,178.55
2022-12-14T08:39:26.903Z,176.99
2022-12-14T08:40:26.868Z,175.63
2022-12-14T08:41:29.844Z,174.14
2022-12-14T08:42:29.845Z,174.14
2022-12-14T08:43:27.243Z,172.66
2022-12-14T08:44:26.895Z,172.19
2022-12-14T08:45:26.803Z,171.63
2022-12-14T08:46:26.845Z,169.50
2022-12-14T08:47:26.773Z,166.79
2022-12-14T08:48:26.764Z,163.59
2022-12-14T08:49:32.121Z,161.04
2022-12-14T08:50:27.779Z,157.34
2022-12-14T08:51:26.713Z,153.32
2022-12-14T08:52:26.709Z,149.76
2022-12-14T08:53:27.035Z,148.55
2022-12-14T08:54:26.678Z,145.72
2022-12-14T08:55:30.207Z,143.46
2022-12-14T08:56:27.755Z,140.71
2022-12-14T08:57:26.641Z,138.09
2022-12-14T08:58:26.626Z,136.76
2022-12-14T08:59:59.349Z,133.78
2022-12-14T09:00:27.672Z,130.95
2022-12-14T09:01:33.569Z,128.29
2022-12-14T09:02:30.671Z,125.37
2022-12-14T09:03:27.050Z,122.71
2022-12-14T09:04:26.569Z,120.75
2022-12-14T09:05:26.583Z,118.67
2022-12-14T09:06:26.535Z,116.30
2022-12-14T09:07:26.506Z,115.47
2022-12-14T09:08:26.494Z,112.20
2022-12-14T09:09:26.495Z,109.33
2022-12-14T09:10:26.476Z,107.79
2022-12-14T09:11:26.515Z,107.38
2022-12-14T09:12:26.445Z,104.81
2022-12-14T09:13:26.641Z,102.07
2022-12-14T09:14:26.457Z,101.55
2022-12-14T09:15:26.415Z,100.13
2022-12-14T09:16:26.543Z,97.86
2022-12-14T09:17:26.415Z,96.67
2022-12-14T09:18:26.611Z,96.24
2022-12-14T09:19:26.366Z,94.96
2022-12-14T09:20:26.347Z,93.81
2022-12-14T09:21:29.338Z,94.55
2022-12-14T09:22:29.382Z,93.38
2022-12-14T09:23:26.650Z,91.12
2022-12-14T09:24:26.298Z,88.77
2022-12-14T09:25:35.620Z,90.16
2022-12-14T09:26:57.332Z,88.55
2022-12-14T09:27:27.061Z,84.84
2022-12-14T09:28:26.425Z,81.17
2022-12-14T09:29:26.341Z,83.42
2022-12-14T09:30:27.183Z,81.46
2022-12-14T09:31:26.872Z,78.54
2022-12-14T09:32:26.515Z,78.61
2022-12-14T09:33:26.616Z,73.83
2022-12-14T09:34:26.251Z,71.27
2022-12-14T09:35:26.215Z,70.29
2022-12-14T09:36:26.168Z,66.44
2022-12-14T09:37:26.195Z,61.76
2022-12-14T09:38:26.159Z,58.94
2022-12-14T09:39:26.177Z,58.29
2022-12-14T09:40:26.160Z,56.60
2022-12-14T09:41:29.108Z,54.13
2022-12-14T09:42:29.111Z,54.52
2022-12-14T09:43:26.374Z,52.95
2022-12-14T09:44:26.058Z,53.78
2022-12-14T09:45:26.114Z,52.32
2022-12-14T09:46:26.077Z,49.19
2022-12-14T09:47:25.997Z,50.51
2022-12-14T09:48:26.312Z,52.04
2022-12-14T09:49:25.999Z,52.74
2022-12-14T09:50:25.960Z,50.88
2022-12-14T09:51:26.050Z,47.89
2022-12-14T09:52:26.030Z,46.12
2022-12-14T09:53:26.247Z,45.22
2022-12-14T09:54:26.008Z,44.79
2022-12-14T09:55:25.980Z,43.02
2022-12-14T09:56:25.945Z,40.13
2022-12-14T09:57:25.992Z,37.23
2022-12-14T09:58:26.100Z,34.82
2022-12-14T09:59:25.873Z,33.67
2022-12-14T10:00:25.831Z,34.50
2022-12-14T10:01:28.864Z,33.11
2022-12-14T10:02:31.557Z,31.87
2022-12-14T10:03:26.089Z,29.05
2022-12-14T10:04:25.837Z,27.48
2022-12-14T10:05:25.779Z,25.40
2022-12-14T10:06:25.772Z,25.07
2022-12-14T10:07:25.750Z,24.00
2022-12-14T10:08:25.791Z,24.24
2022-12-14T10:09:25.721Z,23.92
2022-12-14T10:10:25.714Z,24.17
2022-12-14T10:11:25.701Z,23.64
2022-12-14T10:12:30.969Z,21.90
2022-12-14T10:13:26.917Z,22.30
2022-12-14T10:14:25.675Z,22.20
2022-12-14T10:15:25.650Z,20.77
2022-12-14T10:16:25.727Z,21.06
2022-12-14T10:17:25.620Z,19.69
2022-12-14T10:18:57.665Z,19.36
2022-12-14T10:19:26.641Z,19.17
2022-12-14T10:20:25.591Z,20.21
2022-12-14T10:21:28.571Z,20.05
2022-12-14T10:22:28.572Z,19.71
2022-12-14T10:23:25.545Z,17.86
2022-12-14T10:24:25.531Z,17.06
2022-12-14T10:25:25.541Z,15.75
2022-12-14T10:26:25.522Z,14.88
2022-12-14T10:27:25.481Z,14.43
2022-12-14T10:28:25.476Z,13.77
2022-12-14T10:29:25.476Z,13.67
2022-12-14T10:30:25.455Z,14.15
2022-12-14T10:31:25.568Z,14.03
2022-12-14T10:32:25.424Z,13.73
2022-12-14T10:33:25.482Z,13.70
2022-12-14T10:34:25.445Z,13.12
2022-12-14T10:35:25.414Z,12.50
2022-12-14T10:36:25.413Z,12.36
2022-12-14T10:37:25.412Z,12.10
2022-12-14T10:38:25.444Z,12.26
2022-12-14T10:39:25.372Z,11.58
2022-12-14T10:40:32.990Z,11.68
2022-12-14T10:41:29.344Z,11.56
2022-12-14T10:42:28.425Z,10.97
2022-12-14T10:43:25.343Z,11.14
2022-12-14T10:44:25.320Z,11.24
2022-12-14T10:45:41.834Z,10.35
2022-12-14T10:46:26.350Z,10.89
2022-12-14T10:47:25.279Z,10.12
2022-12-14T10:48:25.321Z,10.07
2022-12-14T10:49:25.255Z,10.03
2022-12-14T10:50:25.277Z,10.09
2022-12-14T10:51:25.224Z,10.09
2022-12-14T10:52:25.212Z,9.79
2022-12-14T10:53:25.173Z,9.14
2022-12-14T10:54:25.205Z,8.61
2022-12-14T10:55:25.235Z,7.94
2022-12-14T10:56:25.247Z,7.66
2022-12-14T10:57:25.175Z,7.62
2022-12-14T10:58:25.150Z,7.60
2022-12-14T10:59:25.134Z,6.81
2022-12-14T11:00:25.225Z,7.36
2022-12-14T11:01:28.301Z,7.15
2022-12-14T11:02:28.347Z,7.07
2022-12-14T11:03:25.225Z,7.03
2022-12-14T11:04:25.154Z,6.67
2022-12-14T11:05:25.153Z,6.28
2022-12-14T11:06:25.108Z,5.81
2022-12-14T11:07:25.158Z,5.51
2022-12-14T11:08:25.161Z,5.35
2022-12-14T11:09:25.102Z,5.81
2022-12-14T11:10:25.169Z,5.28
2022-12-14T11:11:25.119Z,4.68
2022-12-14T11:12:25.077Z,4.56
2022-12-14T11:13:25.233Z,4.07
2022-12-14T11:14:24.994Z,3.65
2022-12-14T11:15:25.139Z,3.76
2022-12-14T11:16:28.837Z,3.75
2022-12-14T11:17:26.054Z,3.34
2022-12-14T11:18:25.041Z,3.26
2022-12-14T11:19:24.977Z,3.11
2022-12-14T11:20:25.080Z,3.01
2022-12-14T11:21:27.934Z,2.70
2022-12-14T11:22:27.907Z,3.00
2022-12-14T11:23:24.886Z,2.62
2022-12-14T11:24:24.878Z,2.51
2022-12-14T11:25:24.957Z,2.33
2022-12-14T11:26:24.843Z,1.82
2022-12-14T11:27:24.886Z,1.82
2022-12-14T11:28:25.718Z,1.79
2022-12-14T11:29:24.726Z,1.42
2022-12-14T11:30:24.896Z,1.36
2022-12-14T11:31:24.840Z,0.94
2022-12-14T11:32:25.031Z,1.11
2022-12-14T11:33:24.729Z,0.91
2022-12-14T11:34:24.870Z,0.52
2022-12-14T11:35:24.728Z,0.26
2022-12-14T11:36:24.639Z,-0.17
2022-12-14T11:37:24.729Z,-0.49
2022-12-14T11:38:24.617Z,-1.05
2022-12-14T11:39:24.555Z,-0.99
2022-12-14T11:40:24.558Z,-1.14
2022-12-14T11:41:27.592Z,-1.38
2022-12-14T11:42:27.739Z,-1.39
2022-12-14T11:43:24.571Z,-1.47
2022-12-14T11:44:24.547Z,-1.60
2022-12-14T11:45:24.469Z,-1.94
2022-12-14T11:46:24.571Z,-1.92
2022-12-14T11:47:24.460Z,-2.16
2022-12-14T11:48:24.501Z,-2.73
2022-12-14T11:49:24.430Z,-2.85
2022-12-14T11:50:24.417Z,-3.11
2022-12-14T11:51:24.512Z,-3.37
2022-12-14T11:52:24.389Z,-3.81
2022-12-14T11:53:24.371Z,-4.03
2022-12-14T11:54:24.418Z,-4.26
2022-12-14T11:55:27.069Z,-4.48
2022-12-14T11:56:24.360Z,-5.07
2022-12-14T11:57:24.298Z,-5.52
2022-12-14T11:58:24.290Z,-5.40
2022-12-14T11:59:24.298Z,-5.60
2022-12-14T12:00:24.302Z,-5.59
2022-12-14T12:01:27.468Z,-5.44
2022-12-14T12:02:27.370Z,-5.47
2022-12-14T12:03:24.293Z,-5.29
2022-12-14T12:04:24.224Z,-5.59
2022-12-14T12:05:24.192Z,-6.02
2022-12-14T12:06:24.201Z,-6.21
2022-12-14T12:07:24.230Z,-6.44
2022-12-14T12:08:24.171Z,-6.27
2022-12-14T12:09:24.151Z,-6.50
2022-12-14T12:10:24.149Z,-6.78
2022-12-14T12:11:24.125Z,-6.48
2022-12-14T12:12:24.112Z,-6.90
2022-12-14T12:13:24.146Z,-7.38
2022-12-14T12:14:24.125Z,-7.24
2022-12-14T12:15:24.083Z,-7.52
2022-12-14T12:16:24.153Z,-7.97
2022-12-14T12:17:24.048Z,-7.92
2022-12-14T12:18:24.060Z,-7.74
2022-12-14T12:19:24.082Z,-7.95
2022-12-14T12:20:24.010Z,-8.19
2022-12-14T12:21:26.990Z,-8.38
2022-12-14T12:22:27.037Z,-8.65
2022-12-14T12:23:24.002Z,-9.21
2022-12-14T12:24:24.042Z,-9.37
2022-12-14T12:25:28.383Z,-9.42
2022-12-14T12:26:24.933Z,-9.07
2022-12-14T12:27:23.903Z,-9.16
2022-12-14T12:28:23.903Z,-9.16
2022-12-14T12:29:23.903Z,-9.15
2022-12-14T12:30:23.872Z,-9.20
2022-12-14T12:31:23.884Z,-9.32
2022-12-14T12:32:23.847Z,-9.45
2022-12-14T12:33:23.831Z,-9.95
2022-12-14T12:34:23.827Z,-9.43
2022-12-14T12:35:23.823Z,-9.50
2022-12-14T12:36:24.522Z,-9.88
2022-12-14T12:37:26.796Z,-10.03
2022-12-14T12:38:23.764Z,-9.61